createdAt,value
2018-10-17T00:00:11.090Z,99.90
2018-10-17T00:02:40.139Z,99.90
2018-10-17T00:05:09.217Z,99.90
2018-10-17T00:07:37.799Z,99.90
2018-10-17T00:10:08.161Z,99.90
2018-10-17T00:12:36.367Z,99.90
2018-10-17T00:15:05.086Z,99.90
2018-10-17T00:17:33.519Z,99.90
2018-10-17T00:20:01.695Z,99.90
2018-10-17T00:22:29.995Z,99.90
2018-10-17T00:24:58.253Z,99.90
2018-10-17T00:27:26.632Z,99.90
2018-10-17T00:29:54.810Z,99.90
2018-10-17T00:32:23.605Z,99.90
2018-10-17T00:34:52.571Z,99.90
2018-10-17T00:37:21.517Z,99.90
2018-10-17T00:39:49.876Z,99.90
2018-10-17T00:42:18.292Z,99.90
2018-10-17T00:44:46.688Z,99.90
2018-10-17T00:47:14.823Z,99.90
2018-10-17T00:49:43.241Z,99.90
2018-10-17T00:52:11.758Z,99.90
2018-10-17T00:54:40.048Z,99.90
2018-10-17T00:57:08.174Z,99.90
2018-10-17T00:59:36.300Z,99.90
2018-10-17T01:02:04.928Z,99.90
2018-10-17T01:04:33.199Z,99.90
2018-10-17T01:07:01.837Z,99.90
2018-10-17T01:09:30.127Z,99.90
2018-10-17T01:11:58.344Z,99.90
2018-10-17T01:14:26.848Z,99.90
2018-10-17T01:16:55.218Z,99.90
2018-10-17T01:19:27.053Z,99.90
2018-10-17T01:22:03.300Z,99.90
2018-10-17T01:24:32.986Z,99.90
2018-10-17T01:27:03.161Z,99.90
2018-10-17T01:29:34.490Z,99.90
2018-10-17T01:32:05.002Z,99.90
2018-10-17T01:34:36.121Z,99.90
2018-10-17T01:37:05.303Z,99.90
2018-10-17T01:39:35.127Z,99.90
2018-10-17T01:42:07.533Z,99.90
2018-10-17T01:44:39.820Z,99.90
2018-10-17T01:47:11.805Z,99.90
2018-10-17T01:49:42.288Z,99.90
2018-10-17T01:52:12.771Z,99.90
2018-10-17T01:54:42.991Z,99.90
2018-10-17T01:57:12.821Z,99.90
2018-10-17T01:59:44.872Z,99.90
2018-10-17T02:02:15.238Z,99.90
2018-10-17T02:04:45.706Z,99.90
2018-10-17T02:07:15.780Z,99.90
2018-10-17T02:09:44.700Z,99.90
2018-10-17T02:12:15.168Z,99.90
2018-10-17T02:14:46.290Z,99.90
2018-10-17T02:17:16.819Z,99.90
2018-10-17T02:19:44.963Z,99.90
2018-10-17T02:22:13.025Z,99.90
2018-10-17T02:24:41.147Z,99.90
2018-10-17T02:27:09.296Z,99.90
2018-10-17T02:29:37.492Z,99.90
2018-10-17T02:32:05.824Z,99.90
2018-10-17T02:34:38.417Z,99.90
2018-10-17T02:37:06.762Z,99.90
2018-10-17T02:39:34.824Z,99.90
2018-10-17T02:42:03.205Z,99.90
2018-10-17T02:44:31.502Z,99.90
2018-10-17T02:46:59.880Z,99.90
2018-10-17T02:49:28.014Z,99.90
2018-10-17T02:51:56.208Z,99.90
2018-10-17T02:54:24.246Z,99.90
2018-10-17T02:56:52.587Z,99.90
2018-10-17T02:59:21.107Z,99.90
2018-10-17T03:01:49.318Z,99.90
2018-10-17T03:04:17.419Z,99.90
2018-10-17T03:06:45.887Z,99.90
2018-10-17T03:09:14.003Z,99.90
2018-10-17T03:11:42.142Z,99.90
2018-10-17T03:14:10.483Z,99.90
2018-10-17T03:16:38.700Z,99.90
2018-10-17T03:19:07.056Z,99.90
2018-10-17T03:21:35.046Z,99.90
2018-10-17T03:24:04.282Z,99.90
2018-10-17T03:26:34.154Z,99.90
2018-10-17T03:29:02.451Z,99.90
2018-10-17T03:31:31.053Z,99.90
2018-10-17T03:33:59.161Z,99.90
2018-10-17T03:36:27.474Z,99.90
2018-10-17T03:38:55.809Z,99.90
2018-10-17T03:41:24.164Z,99.90
2018-10-17T03:43:52.427Z,99.90
2018-10-17T03:46:20.722Z,99.90
2018-10-17T03:48:48.827Z,99.90
2018-10-17T03:51:17.009Z,99.90
2018-10-17T03:53:45.209Z,99.90
2018-10-17T03:56:14.631Z,99.90
2018-10-17T03:58:42.825Z,99.90
2018-10-17T04:01:11.400Z,99.90
2018-10-17T04:03:40.055Z,99.90
2018-10-17T04:06:08.221Z,99.90
2018-10-17T04:08:36.472Z,99.90
2018-10-17T04:11:05.072Z,99.90
2018-10-17T04:13:33.406Z,99.90
2018-10-17T04:16:01.496Z,99.90
2018-10-17T04:18:29.635Z,99.90
2018-10-17T04:20:57.883Z,99.90
2018-10-17T04:23:25.956Z,99.90
2018-10-17T04:25:55.271Z,99.90
2018-10-17T04:28:24.114Z,99.90
2018-10-17T04:30:52.649Z,99.90
2018-10-17T04:33:22.403Z,99.90
2018-10-17T04:35:50.588Z,99.90
2018-10-17T04:38:18.639Z,99.90
2018-10-17T04:40:47.413Z,99.90
2018-10-17T04:43:15.552Z,99.90
2018-10-17T04:45:43.639Z,99.90
2018-10-17T04:48:11.766Z,99.90
2018-10-17T04:50:39.953Z,99.90
2018-10-17T04:53:08.196Z,99.90
2018-10-17T04:55:36.346Z,99.90
2018-10-17T04:58:04.563Z,99.90
2018-10-17T05:00:32.630Z,99.90
2018-10-17T05:03:01.157Z,99.90
2018-10-17T05:05:29.492Z,99.90
2018-10-17T05:07:57.636Z,99.90
2018-10-17T05:10:25.927Z,99.90
2018-10-17T05:12:53.949Z,99.90
2018-10-17T05:15:22.040Z,99.90
2018-10-17T05:17:50.300Z,99.90
2018-10-17T05:20:18.389Z,99.90
2018-10-17T05:22:46.511Z,99.90
2018-10-17T05:25:14.809Z,99.90
2018-10-17T05:27:42.940Z,99.90
2018-10-17T05:30:11.807Z,99.90
2018-10-17T05:32:40.210Z,99.90
2018-10-17T05:35:08.340Z,99.90
2018-10-17T05:37:36.490Z,99.90
2018-10-17T05:40:05.241Z,99.90
2018-10-17T05:42:33.322Z,99.90
2018-10-17T05:45:01.433Z,99.90
2018-10-17T05:47:29.530Z,99.90
2018-10-17T05:49:57.863Z,99.90
2018-10-17T05:52:25.955Z,99.90
2018-10-17T05:54:54.195Z,99.90
2018-10-17T05:57:22.501Z,99.90
2018-10-17T05:59:50.571Z,99.90
2018-10-17T06:02:24.246Z,99.90
2018-10-17T06:04:52.909Z,99.90
2018-10-17T06:07:21.174Z,99.90
2018-10-17T06:09:49.456Z,99.90
2018-10-17T06:12:17.976Z,99.90
2018-10-17T06:14:46.220Z,99.90
2018-10-17T06:17:14.305Z,99.90
2018-10-17T06:19:42.328Z,99.90
2018-10-17T06:22:10.372Z,99.90
2018-10-17T06:24:38.615Z,99.90
2018-10-17T06:27:06.654Z,99.90
2018-10-17T06:29:34.730Z,99.90
2018-10-17T06:32:02.915Z,99.90
2018-10-17T06:34:41.735Z,99.90
2018-10-17T06:37:09.946Z,99.90
2018-10-17T06:39:38.038Z,99.90
2018-10-17T06:42:06.443Z,99.90
2018-10-17T06:44:34.987Z,99.90
2018-10-17T06:47:03.094Z,99.90
2018-10-17T06:49:31.188Z,99.90
2018-10-17T06:51:59.398Z,99.90
2018-10-17T06:54:27.726Z,99.90
2018-10-17T06:56:55.784Z,99.90
2018-10-17T06:59:23.952Z,99.90
2018-10-17T07:01:52.265Z,99.90
2018-10-17T07:04:20.452Z,99.90
2018-10-17T07:06:48.845Z,99.90
2018-10-17T07:09:17.239Z,99.90
2018-10-17T07:11:45.473Z,99.90
2018-10-17T07:14:14.892Z,99.90
2018-10-17T07:16:43.285Z,99.90
2018-10-17T07:19:11.877Z,99.90
2018-10-17T07:21:40.133Z,99.90
2018-10-17T07:24:08.254Z,99.90
2018-10-17T07:26:36.336Z,99.90
2018-10-17T07:29:04.689Z,99.90
2018-10-17T07:31:32.967Z,99.90
2018-10-17T07:34:01.160Z,99.90
2018-10-17T07:36:29.215Z,99.90
2018-10-17T07:38:57.356Z,99.90
2018-10-17T07:41:25.376Z,99.90
2018-10-17T07:43:53.454Z,99.90
2018-10-17T07:46:21.903Z,99.90
2018-10-17T07:48:50.111Z,99.90
2018-10-17T07:51:18.252Z,99.90
2018-10-17T07:53:46.372Z,99.90
2018-10-17T07:56:14.662Z,99.90
2018-10-17T07:58:42.885Z,99.90
2018-10-17T08:01:11.008Z,99.90
2018-10-17T08:03:39.124Z,99.90
2018-10-17T08:06:07.240Z,99.90
2018-10-17T08:08:35.307Z,99.90
2018-10-17T08:11:04.041Z,99.90
2018-10-17T08:13:32.177Z,99.90
2018-10-17T08:16:00.376Z,99.90
2018-10-17T08:18:28.555Z,99.90
2018-10-17T08:20:56.712Z,99.90
2018-10-17T08:23:25.113Z,99.90
2018-10-17T08:25:53.266Z,99.90
2018-10-17T08:28:21.422Z,99.90
2018-10-17T08:30:49.588Z,99.90
2018-10-17T08:33:18.041Z,99.90
2018-10-17T08:35:46.302Z,99.90
2018-10-17T08:38:14.521Z,99.10
2018-10-17T08:40:42.527Z,98.70
2018-10-17T08:43:10.542Z,97.40
2018-10-17T08:45:38.619Z,97.40
2018-10-17T08:48:06.716Z,97.00
2018-10-17T08:50:34.982Z,94.70
2018-10-17T08:53:03.302Z,94.00
2018-10-17T08:55:31.464Z,94.60
2018-10-17T08:57:59.618Z,93.40
2018-10-17T09:00:27.881Z,91.10
2018-10-17T09:02:55.976Z,90.70
2018-10-17T09:05:25.064Z,91.60
2018-10-17T09:07:52.369Z,90.30
2018-10-17T09:10:20.484Z,90.30
2018-10-17T09:12:48.796Z,88.00
2018-10-17T09:15:16.900Z,86.90
2018-10-17T09:17:44.984Z,88.30
2018-10-17T09:20:13.419Z,89.20
2018-10-17T09:22:41.656Z,86.40
2018-10-17T09:25:09.731Z,86.70
2018-10-17T09:27:37.993Z,86.20
2018-10-17T09:30:08.596Z,83.20
2018-10-17T09:32:36.792Z,80.50
2018-10-17T09:35:06.076Z,82.20
2018-10-17T09:37:34.171Z,79.20
2018-10-17T09:40:02.388Z,77.70
2018-10-17T09:42:30.503Z,78.60
2018-10-17T09:44:58.823Z,77.70
2018-10-17T09:47:27.127Z,75.70
2018-10-17T09:49:55.279Z,74.20
2018-10-17T09:52:23.731Z,74.10
2018-10-17T09:54:52.241Z,73.60
2018-10-17T09:57:20.403Z,69.30
2018-10-17T09:59:48.543Z,67.50
2018-10-17T10:02:16.951Z,65.90
2018-10-17T10:04:45.388Z,65.40
2018-10-17T10:07:13.520Z,64.90
2018-10-17T10:09:41.944Z,63.60
2018-10-17T10:12:10.202Z,62.40
2018-10-17T10:14:38.340Z,61.80
2018-10-17T10:17:06.582Z,61.50
2018-10-17T10:19:34.740Z,61.40
2018-10-17T10:22:03.442Z,61.80
2018-10-17T10:24:31.566Z,61.50
2018-10-17T10:26:59.740Z,61.00
2018-10-17T10:29:28.042Z,59.10
2018-10-17T10:31:56.106Z,58.40
2018-10-17T10:34:24.173Z,57.20
2018-10-17T10:36:52.347Z,58.10
2018-10-17T10:39:20.875Z,57.60
2018-10-17T10:41:49.104Z,57.30
2018-10-17T10:44:17.673Z,58.10
2018-10-17T10:46:45.830Z,58.30
2018-10-17T10:49:14.238Z,58.60
2018-10-17T10:51:43.226Z,58.80
2018-10-17T10:54:11.390Z,59.50
2018-10-17T10:56:39.713Z,60.40
2018-10-17T10:59:08.259Z,63.10
2018-10-17T11:01:36.315Z,66.20
2018-10-17T11:04:05.298Z,69.70
2018-10-17T11:06:33.466Z,70.30
2018-10-17T11:09:01.625Z,74.20
2018-10-17T11:11:29.719Z,75.70
2018-10-17T11:13:57.853Z,77.00
2018-10-17T11:16:25.936Z,79.10
2018-10-17T11:18:53.917Z,78.30
2018-10-17T11:21:22.230Z,79.60
2018-10-17T11:23:50.915Z,80.70
2018-10-17T11:26:19.178Z,79.50
2018-10-17T11:28:47.342Z,82.40
2018-10-17T11:31:16.159Z,83.60
2018-10-17T11:33:44.380Z,84.40
2018-10-17T11:36:13.242Z,86.30
2018-10-17T11:38:42.090Z,87.10
2018-10-17T11:41:10.472Z,87.40
2018-10-17T11:43:38.471Z,88.80
2018-10-17T11:46:06.661Z,90.00
2018-10-17T11:48:34.850Z,89.80
2018-10-17T11:51:03.211Z,90.50
2018-10-17T11:53:31.371Z,91.00
2018-10-17T11:55:59.403Z,91.60
2018-10-17T11:58:27.963Z,91.60
2018-10-17T12:00:56.832Z,92.60
2018-10-17T12:03:25.067Z,92.60
2018-10-17T12:05:53.739Z,94.00
2018-10-17T12:08:21.771Z,94.00
2018-10-17T12:10:50.603Z,93.90
2018-10-17T12:13:18.723Z,94.60
2018-10-17T12:15:46.852Z,94.90
2018-10-17T12:18:15.064Z,95.50
2018-10-17T12:20:43.219Z,95.80
2018-10-17T12:23:11.396Z,95.60
2018-10-17T12:25:39.451Z,95.90
2018-10-17T12:28:07.703Z,95.80
2018-10-17T12:30:35.640Z,96.30
2018-10-17T12:33:03.907Z,96.50
2018-10-17T12:35:31.984Z,96.40
2018-10-17T12:38:00.054Z,96.50
2018-10-17T12:40:28.225Z,96.50
2018-10-17T12:42:56.546Z,98.30
2018-10-17T12:45:24.715Z,97.40
2018-10-17T12:47:53.074Z,97.10
2018-10-17T12:50:21.499Z,98.10
2018-10-17T12:52:49.748Z,98.40
2018-10-17T12:55:17.777Z,98.80
2018-10-17T12:57:45.967Z,98.70
2018-10-17T13:00:14.305Z,99.90
2018-10-17T13:02:42.393Z,99.60
2018-10-17T13:05:10.849Z,99.40
2018-10-17T13:07:39.359Z,99.50
2018-10-17T13:10:09.137Z,99.90
2018-10-17T13:12:37.871Z,99.90
2018-10-17T13:15:08.566Z,99.50
2018-10-17T13:17:37.156Z,98.10
2018-10-17T13:20:05.667Z,99.20
2018-10-17T13:22:33.852Z,99.10
2018-10-17T13:25:02.384Z,99.70
2018-10-17T13:27:30.556Z,99.90
2018-10-17T13:29:59.020Z,99.10
2018-10-17T13:32:27.217Z,98.10
2018-10-17T13:34:55.534Z,98.80
2018-10-17T13:37:23.922Z,98.60
2018-10-17T13:39:52.084Z,98.00
2018-10-17T13:42:20.476Z,97.50
2018-10-17T13:44:48.797Z,97.80
2018-10-17T13:47:17.129Z,98.60
2018-10-17T13:49:45.556Z,98.50
2018-10-17T13:52:13.695Z,98.70
2018-10-17T13:54:42.153Z,98.10
2018-10-17T13:57:10.250Z,98.90
2018-10-17T13:59:38.505Z,98.40
2018-10-17T14:02:06.934Z,98.10
2018-10-17T14:04:34.983Z,99.50
2018-10-17T14:07:03.471Z,99.90
2018-10-17T14:09:31.518Z,99.90
2018-10-17T14:11:59.970Z,99.90
2018-10-17T14:14:28.171Z,99.90
2018-10-17T14:16:56.306Z,99.90
2018-10-17T14:19:24.439Z,99.90
2018-10-17T14:21:52.621Z,99.90
2018-10-17T14:24:20.813Z,99.90
2018-10-17T14:26:48.968Z,99.90
2018-10-17T14:29:17.218Z,99.90
2018-10-17T14:31:45.477Z,99.90
2018-10-17T14:34:13.610Z,99.90
2018-10-17T14:36:41.783Z,99.90
2018-10-17T14:39:11.938Z,99.90
2018-10-17T14:41:40.022Z,99.90
2018-10-17T14:44:08.352Z,99.90
2018-10-17T14:46:36.677Z,99.90
2018-10-17T14:49:05.262Z,99.90
2018-10-17T14:51:33.373Z,99.90
2018-10-17T14:54:01.518Z,99.90
2018-10-17T14:56:29.825Z,99.90
2018-10-17T14:58:58.095Z,99.90
2018-10-17T15:01:26.309Z,99.90
2018-10-17T15:03:54.746Z,99.90
2018-10-17T15:06:23.006Z,99.90
2018-10-17T15:08:51.265Z,99.90
2018-10-17T15:11:19.578Z,99.90
2018-10-17T15:13:47.615Z,99.90
2018-10-17T15:16:15.773Z,99.90
2018-10-17T15:18:44.023Z,99.90
2018-10-17T15:21:12.850Z,99.90
2018-10-17T15:23:41.214Z,99.90
2018-10-17T15:26:09.905Z,99.90
2018-10-17T15:28:38.110Z,99.90
2018-10-17T15:31:06.338Z,99.90
2018-10-17T15:33:34.660Z,99.90
2018-10-17T15:36:09.629Z,99.90
2018-10-17T15:38:37.943Z,99.90
2018-10-17T15:41:06.228Z,99.90
2018-10-17T15:43:34.392Z,99.90
2018-10-17T15:46:02.984Z,99.90
2018-10-17T15:48:31.782Z,99.90
2018-10-17T15:51:01.105Z,99.90
2018-10-17T15:53:29.516Z,99.90
2018-10-17T15:55:58.039Z,99.90
2018-10-17T15:58:26.207Z,99.90
2018-10-17T16:00:54.586Z,99.90
2018-10-17T16:03:22.933Z,99.90
2018-10-17T16:05:51.036Z,99.90
2018-10-17T16:08:19.216Z,99.90
2018-10-17T16:10:47.299Z,99.90
2018-10-17T16:13:15.389Z,99.90
2018-10-17T16:15:43.565Z,99.90
2018-10-17T16:18:12.395Z,99.90
2018-10-17T16:20:40.841Z,99.90
2018-10-17T16:23:09.200Z,99.90
2018-10-17T16:25:37.565Z,99.90
2018-10-17T16:28:07.072Z,99.90
2018-10-17T16:30:35.535Z,99.90
2018-10-17T16:33:03.943Z,99.90
2018-10-17T16:35:32.343Z,99.90
2018-10-17T16:38:00.657Z,99.90
2018-10-17T16:40:28.817Z,99.90
2018-10-17T16:42:57.014Z,99.90
2018-10-17T16:45:25.484Z,99.90
2018-10-17T16:47:53.713Z,99.90
2018-10-17T16:50:22.116Z,99.90
2018-10-17T16:52:50.514Z,99.90
2018-10-17T16:55:18.641Z,99.90
2018-10-17T16:57:46.861Z,99.90
2018-10-17T17:00:15.303Z,99.90
2018-10-17T17:02:43.584Z,99.90
2018-10-17T17:05:13.964Z,99.90
2018-10-17T17:07:42.298Z,99.90
2018-10-17T17:10:11.780Z,99.90
2018-10-17T17:12:50.018Z,99.90
2018-10-17T17:15:18.199Z,99.90
2018-10-17T17:17:46.254Z,99.90
2018-10-17T17:20:14.713Z,99.90
2018-10-17T17:22:42.827Z,99.90
2018-10-17T17:25:11.033Z,99.90
2018-10-17T17:27:39.200Z,99.90
2018-10-17T17:30:15.592Z,99.90
2018-10-17T17:32:44.364Z,99.90
2018-10-17T17:37:50.901Z,99.90
2018-10-17T17:40:19.149Z,99.90
2018-10-17T17:42:47.430Z,99.90
2018-10-17T17:45:15.534Z,99.90
2018-10-17T17:47:43.973Z,99.90
2018-10-17T17:50:12.237Z,99.90
2018-10-17T17:52:40.934Z,99.90
2018-10-17T17:55:09.486Z,99.90
2018-10-17T17:57:37.890Z,99.90
2018-10-17T18:00:07.274Z,99.90
2018-10-17T18:02:35.762Z,99.90
2018-10-17T18:05:04.155Z,99.90
2018-10-17T18:07:32.386Z,99.90
2018-10-17T18:10:02.284Z,99.90
2018-10-17T18:12:30.770Z,99.90
2018-10-17T18:14:59.123Z,99.90
2018-10-17T18:17:27.412Z,99.90
2018-10-17T18:19:56.032Z,99.90
2018-10-17T18:22:25.145Z,99.90
2018-10-17T18:24:54.747Z,99.90
2018-10-17T18:27:23.747Z,99.90
2018-10-17T18:29:52.071Z,99.90
2018-10-17T18:32:20.830Z,99.90
2018-10-17T18:34:49.000Z,99.90
2018-10-17T18:37:17.472Z,99.90
2018-10-17T18:39:45.748Z,99.90
2018-10-17T18:42:14.010Z,99.90
2018-10-17T18:44:42.316Z,99.90
2018-10-17T18:47:10.582Z,99.90
2018-10-17T18:49:38.777Z,99.90
2018-10-17T18:52:07.154Z,99.90
2018-10-17T18:54:35.246Z,99.90
2018-10-17T18:57:03.626Z,99.90
2018-10-17T18:59:31.773Z,99.90
2018-10-17T19:02:00.067Z,99.90
2018-10-17T19:04:28.606Z,99.90
2018-10-17T19:06:56.849Z,99.90
2018-10-17T19:09:25.166Z,99.90
2018-10-17T19:11:53.599Z,99.90
2018-10-17T19:14:22.043Z,99.90
2018-10-17T19:16:50.404Z,99.90
2018-10-17T19:19:18.887Z,99.90
2018-10-17T19:21:47.735Z,99.90
2018-10-17T19:24:16.295Z,99.90
2018-10-17T19:26:44.474Z,99.90
2018-10-17T19:29:13.527Z,99.90
2018-10-17T19:31:41.908Z,99.90
2018-10-17T19:34:10.073Z,99.90
2018-10-17T19:36:38.492Z,99.90
2018-10-17T19:39:10.013Z,99.90
2018-10-17T19:41:38.332Z,99.90
2018-10-17T19:44:06.680Z,99.90
2018-10-17T19:46:34.901Z,99.90
2018-10-17T19:49:03.270Z,99.90
2018-10-17T19:51:31.525Z,99.90
2018-10-17T19:53:59.960Z,99.90
2018-10-17T19:56:28.177Z,99.90
2018-10-17T19:58:57.090Z,99.90
2018-10-17T20:01:25.723Z,99.90
2018-10-17T20:03:53.929Z,99.90
2018-10-17T20:06:22.201Z,99.90
2018-10-17T20:08:50.458Z,99.90
2018-10-17T20:11:18.600Z,99.90
2018-10-17T20:13:46.903Z,99.90
2018-10-17T20:16:15.498Z,99.90
2018-10-17T20:18:44.249Z,99.90
2018-10-17T20:21:12.645Z,99.90
2018-10-17T20:23:40.966Z,99.90
2018-10-17T20:26:09.917Z,99.90
2018-10-17T20:28:38.339Z,99.90
2018-10-17T20:31:06.659Z,99.90
2018-10-17T20:33:35.420Z,99.90
2018-10-17T20:36:03.676Z,99.90
2018-10-17T20:38:32.370Z,99.90
2018-10-17T20:41:00.833Z,99.90
2018-10-17T20:43:29.064Z,99.90
2018-10-17T20:45:58.120Z,99.90
2018-10-17T20:48:26.514Z,99.90
2018-10-17T20:50:54.975Z,99.90
2018-10-17T20:53:24.069Z,99.90
2018-10-17T20:55:53.527Z,99.90
2018-10-17T20:58:21.669Z,99.90
2018-10-17T21:00:51.909Z,99.90
2018-10-17T21:03:20.512Z,99.90
2018-10-17T21:05:49.193Z,99.90
2018-10-17T21:08:17.513Z,99.90
2018-10-17T21:10:46.057Z,99.90
2018-10-17T21:13:14.605Z,99.90
2018-10-17T21:15:42.793Z,99.90
2018-10-17T21:18:11.142Z,99.90
2018-10-17T21:20:39.295Z,99.90
2018-10-17T21:23:07.481Z,99.90
2018-10-17T21:25:35.809Z,99.90
2018-10-17T21:28:04.468Z,99.90
2018-10-17T21:30:32.624Z,99.90
2018-10-17T21:33:01.000Z,99.90
2018-10-17T21:35:29.119Z,99.90
2018-10-17T21:37:59.231Z,99.90
2018-10-17T21:40:27.501Z,99.90
2018-10-17T21:42:55.665Z,99.90
2018-10-17T21:45:23.927Z,99.90
2018-10-17T21:47:52.760Z,99.90
2018-10-17T21:50:20.805Z,99.90
2018-10-17T21:52:49.012Z,99.90
2018-10-17T21:55:17.301Z,99.90
2018-10-17T21:57:45.581Z,99.90
2018-10-17T22:00:13.732Z,99.90
2018-10-17T22:02:41.986Z,99.90
2018-10-17T22:05:10.644Z,99.90
2018-10-17T22:07:39.144Z,99.90
2018-10-17T22:10:08.076Z,99.90
2018-10-17T22:12:36.510Z,99.90
2018-10-17T22:15:06.815Z,99.90
2018-10-17T22:17:35.372Z,99.90
2018-10-17T22:20:06.049Z,99.90
2018-10-17T22:22:34.842Z,99.90
2018-10-17T22:25:03.898Z,99.90
2018-10-17T22:27:32.101Z,99.90
2018-10-17T22:30:00.717Z,99.90
2018-10-17T22:32:28.979Z,99.90
2018-10-17T22:34:57.499Z,99.90
2018-10-17T22:37:26.513Z,99.90
2018-10-17T22:39:54.884Z,99.90
2018-10-17T22:42:23.259Z,99.90
2018-10-17T22:44:51.631Z,99.90
2018-10-17T22:47:19.814Z,99.90
2018-10-17T22:49:48.888Z,99.90
2018-10-17T22:52:17.118Z,99.90
2018-10-17T22:54:45.616Z,99.90
2018-10-17T22:57:13.965Z,99.90
2018-10-17T22:59:42.386Z,99.90
2018-10-17T23:02:11.061Z,99.90
2018-10-17T23:04:39.570Z,99.90
2018-10-17T23:07:08.054Z,99.90
2018-10-17T23:09:36.304Z,99.90
2018-10-17T23:12:05.184Z,99.90
2018-10-17T23:14:33.472Z,99.90
2018-10-17T23:17:01.802Z,99.90
2018-10-17T23:19:29.998Z,99.90
2018-10-17T23:21:58.145Z,99.90
2018-10-17T23:24:26.385Z,99.90
2018-10-17T23:26:54.479Z,99.90
2018-10-17T23:29:22.613Z,99.90
2018-10-17T23:31:50.769Z,99.90
2018-10-17T23:34:25.838Z,99.90
2018-10-17T23:36:54.116Z,99.90
2018-10-17T23:39:22.465Z,99.90
2018-10-17T23:41:50.605Z,99.90
2018-10-17T23:44:18.792Z,99.90
2018-10-17T23:46:46.962Z,99.90
2018-10-17T23:49:15.444Z,99.90
2018-10-17T23:51:44.789Z,99.90
2018-10-17T23:54:13.174Z,99.90
2018-10-17T23:56:41.316Z,99.90
2018-10-17T23:59:09.499Z,99.90
